sensor_id;sensor_type;location;lat;lon;timestamp;P1;durP1;ratioP1;P2;durP2;ratioP2
9364;SDS011;4722;49.340;9.800;2023-04-19T00:02:04;14.00;;;5.35;;
9364;SDS011;4722;49.340;9.800;2023-04-19T00:04:32;11.52;;;4.85;;
9364;SDS011;4722;49.340;9.800;2023-04-19T00:06:58;15.15;;;5.88;;
9364;SDS011;4722;49.340;9.800;2023-04-19T00:09:24;14.35;;;6.53;;
9364;SDS011;4722;49.340;9.800;2023-04-19T00:11:51;10.73;;;5.25;;
9364;SDS011;4722;49.340;9.800;2023-04-19T00:14:16;13.10;;;5.53;;
9364;SDS011;4722;49.340;9.800;2023-04-19T00:16:42;14.55;;;5.38;;
9364;SDS011;4722;49.340;9.800;2023-04-19T00:19:08;12.40;;;4.40;;
9364;SDS011;4722;49.340;9.800;2023-04-19T00:21:35;7.68;;;3.70;;
9364;SDS011;4722;49.340;9.800;2023-04-19T00:24:01;10.82;;;4.80;;
9364;SDS011;4722;49.340;9.800;2023-04-19T00:26:27;13.52;;;5.65;;
9364;SDS011;4722;49.340;9.800;2023-04-19T00:28:53;9.10;;;4.45;;
9364;SDS011;4722;49.340;9.800;2023-04-19T00:31:19;12.40;;;4.68;;
9364;SDS011;4722;49.340;9.800;2023-04-19T00:33:45;7.68;;;4.18;;
9364;SDS011;4722;49.340;9.800;2023-04-19T00:36:11;9.77;;;4.53;;
9364;SDS011;4722;49.340;9.800;2023-04-19T00:38:37;9.55;;;4.57;;
9364;SDS011;4722;49.340;9.800;2023-04-19T00:41:03;10.07;;;4.45;;
9364;SDS011;4722;49.340;9.800;2023-04-19T00:43:29;14.90;;;6.03;;
9364;SDS011;4722;49.340;9.800;2023-04-19T00:45:55;11.68;;;4.57;;
9364;SDS011;4722;49.340;9.800;2023-04-19T00:48:21;11.50;;;5.63;;
9364;SDS011;4722;49.340;9.800;2023-04-19T00:50:47;11.65;;;3.95;;
9364;SDS011;4722;49.340;9.800;2023-04-19T00:53:13;8.27;;;3.70;;
9364;SDS011;4722;49.340;9.800;2023-04-19T00:55:39;8.65;;;4.65;;
9364;SDS011;4722;49.340;9.800;2023-04-19T00:58:05;11.73;;;4.90;;
9364;SDS011;4722;49.340;9.800;2023-04-19T01:00:31;8.73;;;3.95;;
9364;SDS011;4722;49.340;9.800;2023-04-19T01:02:57;10.10;;;4.72;;
9364;SDS011;4722;49.340;9.800;2023-04-19T01:05:22;9.05;;;4.72;;
9364;SDS011;4722;49.340;9.800;2023-04-19T01:07:48;6.40;;;3.33;;
9364;SDS011;4722;49.340;9.800;2023-04-19T01:10:15;10.75;;;4.75;;
9364;SDS011;4722;49.340;9.800;2023-04-19T01:12:41;8.00;;;3.42;;
9364;SDS011;4722;49.340;9.800;2023-04-19T01:15:07;13.68;;;6.13;;
9364;SDS011;4722;49.340;9.800;2023-04-19T01:17:33;15.85;;;6.38;;
9364;SDS011;4722;49.340;9.800;2023-04-19T01:20:00;13.00;;;5.32;;
9364;SDS011;4722;49.340;9.800;2023-04-19T01:22:27;12.10;;;5.10;;
9364;SDS011;4722;49.340;9.800;2023-04-19T01:24:54;9.55;;;4.90;;
9364;SDS011;4722;49.340;9.800;2023-04-19T01:27:21;8.90;;;4.05;;
9364;SDS011;4722;49.340;9.800;2023-04-19T01:29:47;8.88;;;4.88;;
9364;SDS011;4722;49.340;9.800;2023-04-19T01:32:13;10.43;;;5.20;;
9364;SDS011;4722;49.340;9.800;2023-04-19T01:34:41;10.32;;;5.55;;
9364;SDS011;4722;49.340;9.800;2023-04-19T01:37:07;8.50;;;4.38;;
9364;SDS011;4722;49.340;9.800;2023-04-19T01:39:33;11.23;;;4.97;;
9364;SDS011;4722;49.340;9.800;2023-04-19T01:41:59;10.02;;;4.38;;
9364;SDS011;4722;49.340;9.800;2023-04-19T01:44:25;14.18;;;4.82;;
9364;SDS011;4722;49.340;9.800;2023-04-19T01:46:51;10.48;;;5.35;;
9364;SDS011;4722;49.340;9.800;2023-04-19T01:49:17;8.85;;;4.57;;
9364;SDS011;4722;49.340;9.800;2023-04-19T01:51:43;13.75;;;5.43;;
9364;SDS011;4722;49.340;9.800;2023-04-19T01:54:09;10.23;;;4.20;;
9364;SDS011;4722;49.340;9.800;2023-04-19T01:56:35;9.85;;;4.63;;
9364;SDS011;4722;49.340;9.800;2023-04-19T01:59:01;11.30;;;5.10;;
9364;SDS011;4722;49.340;9.800;2023-04-19T02:01:34;11.30;;;4.82;;
9364;SDS011;4722;49.340;9.800;2023-04-19T02:04:01;12.75;;;4.43;;
9364;SDS011;4722;49.340;9.800;2023-04-19T02:06:27;13.00;;;5.90;;
9364;SDS011;4722;49.340;9.800;2023-04-19T02:08:53;9.88;;;5.50;;
9364;SDS011;4722;49.340;9.800;2023-04-19T02:11:19;12.93;;;4.80;;
9364;SDS011;4722;49.340;9.800;2023-04-19T02:13:45;15.27;;;5.22;;
9364;SDS011;4722;49.340;9.800;2023-04-19T02:16:11;9.63;;;4.53;;
9364;SDS011;4722;49.340;9.800;2023-04-19T02:18:37;9.02;;;4.63;;
9364;SDS011;4722;49.340;9.800;2023-04-19T02:21:03;11.40;;;5.25;;
9364;SDS011;4722;49.340;9.800;2023-04-19T02:23:29;9.55;;;4.07;;
9364;SDS011;4722;49.340;9.800;2023-04-19T02:25:55;8.63;;;4.18;;
9364;SDS011;4722;49.340;9.800;2023-04-19T02:28:21;12.95;;;5.15;;
9364;SDS011;4722;49.340;9.800;2023-04-19T02:30:47;13.32;;;5.47;;
9364;SDS011;4722;49.340;9.800;2023-04-19T02:33:13;10.52;;;5.20;;
9364;SDS011;4722;49.340;9.800;2023-04-19T02:35:39;15.55;;;5.05;;
9364;SDS011;4722;49.340;9.800;2023-04-19T02:38:05;8.23;;;4.30;;
9364;SDS011;4722;49.340;9.800;2023-04-19T02:40:31;11.90;;;4.97;;
9364;SDS011;4722;49.340;9.800;2023-04-19T02:42:57;11.52;;;4.63;;
9364;SDS011;4722;49.340;9.800;2023-04-19T02:45:23;11.30;;;4.95;;
9364;SDS011;4722;49.340;9.800;2023-04-19T02:47:49;8.10;;;3.80;;
9364;SDS011;4722;49.340;9.800;2023-04-19T02:50:15;8.18;;;4.35;;
9364;SDS011;4722;49.340;9.800;2023-04-19T02:52:41;12.57;;;4.65;;
9364;SDS011;4722;49.340;9.800;2023-04-19T02:55:07;14.30;;;4.35;;
9364;SDS011;4722;49.340;9.800;2023-04-19T02:57:33;7.47;;;4.35;;
9364;SDS011;4722;49.340;9.800;2023-04-19T02:59:59;12.00;;;4.85;;
9364;SDS011;4722;49.340;9.800;2023-04-19T03:02:25;10.60;;;4.70;;
9364;SDS011;4722;49.340;9.800;2023-04-19T03:04:51;8.77;;;4.07;;
9364;SDS011;4722;49.340;9.800;2023-04-19T03:07:18;10.48;;;4.55;;
9364;SDS011;4722;49.340;9.800;2023-04-19T03:09:44;12.25;;;5.15;;
9364;SDS011;4722;49.340;9.800;2023-04-19T03:12:10;9.52;;;3.92;;
9364;SDS011;4722;49.340;9.800;2023-04-19T03:14:36;10.43;;;4.47;;
9364;SDS011;4722;49.340;9.800;2023-04-19T03:17:02;14.55;;;4.95;;
9364;SDS011;4722;49.340;9.800;2023-04-19T03:19:28;7.20;;;3.95;;
9364;SDS011;4722;49.340;9.800;2023-04-19T03:21:54;12.32;;;4.75;;
9364;SDS011;4722;49.340;9.800;2023-04-19T03:24:26;10.15;;;4.63;;
9364;SDS011;4722;49.340;9.800;2023-04-19T03:26:53;10.55;;;5.47;;
9364;SDS011;4722;49.340;9.800;2023-04-19T03:29:19;11.82;;;4.72;;
9364;SDS011;4722;49.340;9.800;2023-04-19T03:31:45;8.27;;;3.92;;
9364;SDS011;4722;49.340;9.800;2023-04-19T03:34:11;9.77;;;4.78;;
9364;SDS011;4722;49.340;9.800;2023-04-19T03:36:37;10.02;;;4.55;;
9364;SDS011;4722;49.340;9.800;2023-04-19T03:39:03;10.32;;;4.65;;
9364;SDS011;4722;49.340;9.800;2023-04-19T03:41:29;7.97;;;4.13;;
9364;SDS011;4722;49.340;9.800;2023-04-19T03:43:55;11.80;;;5.28;;
9364;SDS011;4722;49.340;9.800;2023-04-19T03:46:22;9.90;;;4.30;;
9364;SDS011;4722;49.340;9.800;2023-04-19T03:48:48;11.20;;;4.50;;
9364;SDS011;4722;49.340;9.800;2023-04-19T03:51:15;10.15;;;4.72;;
9364;SDS011;4722;49.340;9.800;2023-04-19T03:53:41;9.57;;;4.93;;
9364;SDS011;4722;49.340;9.800;2023-04-19T03:56:07;11.90;;;5.57;;
9364;SDS011;4722;49.340;9.800;2023-04-19T03:58:33;10.18;;;4.85;;
9364;SDS011;4722;49.340;9.800;2023-04-19T04:00:59;10.45;;;5.28;;
9364;SDS011;4722;49.340;9.800;2023-04-19T04:03:25;8.07;;;4.25;;
9364;SDS011;4722;49.340;9.800;2023-04-19T04:05:51;6.93;;;3.25;;
9364;SDS011;4722;49.340;9.800;2023-04-19T04:08:17;7.07;;;3.70;;
9364;SDS011;4722;49.340;9.800;2023-04-19T04:10:44;12.07;;;5.40;;
9364;SDS011;4722;49.340;9.800;2023-04-19T04:13:09;9.10;;;4.95;;
9364;SDS011;4722;49.340;9.800;2023-04-19T04:15:35;13.82;;;6.20;;
9364;SDS011;4722;49.340;9.800;2023-04-19T04:18:11;24.98;;;10.05;;
9364;SDS011;4722;49.340;9.800;2023-04-19T04:20:36;19.83;;;9.00;;
9364;SDS011;4722;49.340;9.800;2023-04-19T04:23:02;23.05;;;9.48;;
9364;SDS011;4722;49.340;9.800;2023-04-19T04:25:28;21.27;;;9.63;;
9364;SDS011;4722;49.340;9.800;2023-04-19T04:27:56;16.92;;;8.15;;
9364;SDS011;4722;49.340;9.800;2023-04-19T04:30:23;27.73;;;10.30;;
9364;SDS011;4722;49.340;9.800;2023-04-19T04:32:50;28.55;;;10.65;;
9364;SDS011;4722;49.340;9.800;2023-04-19T04:35:16;19.90;;;9.43;;
9364;SDS011;4722;49.340;9.800;2023-04-19T04:37:42;38.25;;;16.30;;
9364;SDS011;4722;49.340;9.800;2023-04-19T04:40:08;23.83;;;11.10;;
9364;SDS011;4722;49.340;9.800;2023-04-19T04:42:35;18.65;;;9.52;;
9364;SDS011;4722;49.340;9.800;2023-04-19T04:45:01;36.13;;;14.10;;
9364;SDS011;4722;49.340;9.800;2023-04-19T04:47:30;19.83;;;11.50;;
9364;SDS011;4722;49.340;9.800;2023-04-19T04:49:57;25.05;;;8.57;;
9364;SDS011;4722;49.340;9.800;2023-04-19T04:52:23;19.38;;;8.45;;
9364;SDS011;4722;49.340;9.800;2023-04-19T04:54:49;17.77;;;8.52;;
9364;SDS011;4722;49.340;9.800;2023-04-19T04:57:15;10.65;;;5.93;;
9364;SDS011;4722;49.340;9.800;2023-04-19T04:59:41;12.48;;;7.03;;
9364;SDS011;4722;49.340;9.800;2023-04-19T05:02:07;13.13;;;6.20;;
9364;SDS011;4722;49.340;9.800;2023-04-19T05:04:33;10.38;;;5.95;;
9364;SDS011;4722;49.340;9.800;2023-04-19T05:06:59;13.65;;;7.57;;
9364;SDS011;4722;49.340;9.800;2023-04-19T05:09:25;11.30;;;5.57;;
9364;SDS011;4722;49.340;9.800;2023-04-19T05:11:51;13.30;;;6.03;;
9364;SDS011;4722;49.340;9.800;2023-04-19T05:14:17;11.57;;;7.00;;
9364;SDS011;4722;49.340;9.800;2023-04-19T05:16:43;13.25;;;6.43;;
9364;SDS011;4722;49.340;9.800;2023-04-19T05:19:09;12.25;;;5.50;;
9364;SDS011;4722;49.340;9.800;2023-04-19T05:21:35;11.13;;;5.38;;
9364;SDS011;4722;49.340;9.800;2023-04-19T05:24:01;11.20;;;4.93;;
9364;SDS011;4722;49.340;9.800;2023-04-19T05:26:27;14.32;;;5.53;;
9364;SDS011;4722;49.340;9.800;2023-04-19T05:28:53;10.43;;;5.10;;
9364;SDS011;4722;49.340;9.800;2023-04-19T05:31:20;14.98;;;4.88;;
9364;SDS011;4722;49.340;9.800;2023-04-19T05:33:46;12.45;;;5.25;;
9364;SDS011;4722;49.340;9.800;2023-04-19T05:36:12;11.82;;;6.43;;
9364;SDS011;4722;49.340;9.800;2023-04-19T05:38:38;11.05;;;4.72;;
9364;SDS011;4722;49.340;9.800;2023-04-19T05:41:04;13.20;;;6.95;;
9364;SDS011;4722;49.340;9.800;2023-04-19T05:43:30;13.77;;;5.32;;
9364;SDS011;4722;49.340;9.800;2023-04-19T05:45:56;11.52;;;5.47;;
9364;SDS011;4722;49.340;9.800;2023-04-19T05:48:22;15.82;;;7.03;;
9364;SDS011;4722;49.340;9.800;2023-04-19T05:50:49;11.50;;;5.82;;
9364;SDS011;4722;49.340;9.800;2023-04-19T05:53:16;9.95;;;4.65;;
9364;SDS011;4722;49.340;9.800;2023-04-19T05:55:42;7.70;;;4.22;;
9364;SDS011;4722;49.340;9.800;2023-04-19T05:58:09;8.68;;;3.97;;
9364;SDS011;4722;49.340;9.800;2023-04-19T06:00:35;10.82;;;4.30;;
9364;SDS011;4722;49.340;9.800;2023-04-19T06:03:02;8.88;;;4.95;;
9364;SDS011;4722;49.340;9.800;2023-04-19T06:05:28;9.80;;;4.72;;
9364;SDS011;4722;49.340;9.800;2023-04-19T06:07:54;17.63;;;5.03;;
9364;SDS011;4722;49.340;9.800;2023-04-19T06:10:21;10.68;;;4.88;;
9364;SDS011;4722;49.340;9.800;2023-04-19T06:12:47;8.43;;;4.47;;
9364;SDS011;4722;49.340;9.800;2023-04-19T06:15:13;9.98;;;5.38;;
9364;SDS011;4722;49.340;9.800;2023-04-19T06:17:39;9.85;;;4.25;;
9364;SDS011;4722;49.340;9.800;2023-04-19T06:20:06;11.05;;;4.07;;
9364;SDS011;4722;49.340;9.800;2023-04-19T06:22:32;9.50;;;4.90;;
9364;SDS011;4722;49.340;9.800;2023-04-19T06:24:58;12.18;;;5.43;;
9364;SDS011;4722;49.340;9.800;2023-04-19T06:27:24;9.52;;;4.13;;
9364;SDS011;4722;49.340;9.800;2023-04-19T06:29:50;14.02;;;4.70;;
9364;SDS011;4722;49.340;9.800;2023-04-19T06:32:16;11.75;;;5.18;;
9364;SDS011;4722;49.340;9.800;2023-04-19T06:34:42;10.93;;;4.50;;
9364;SDS011;4722;49.340;9.800;2023-04-19T06:37:08;8.05;;;4.72;;
9364;SDS011;4722;49.340;9.800;2023-04-19T06:39:34;10.82;;;5.72;;
9364;SDS011;4722;49.340;9.800;2023-04-19T06:42:00;12.13;;;5.82;;
9364;SDS011;4722;49.340;9.800;2023-04-19T06:44:26;11.93;;;4.65;;
9364;SDS011;4722;49.340;9.800;2023-04-19T06:46:52;11.07;;;6.10;;
9364;SDS011;4722;49.340;9.800;2023-04-19T06:49:18;9.30;;;4.25;;
9364;SDS011;4722;49.340;9.800;2023-04-19T06:51:44;10.27;;;4.70;;
9364;SDS011;4722;49.340;9.800;2023-04-19T06:54:10;10.07;;;5.45;;
9364;SDS011;4722;49.340;9.800;2023-04-19T06:56:40;10.00;;;4.88;;
9364;SDS011;4722;49.340;9.800;2023-04-19T06:59:09;14.05;;;6.22;;
9364;SDS011;4722;49.340;9.800;2023-04-19T07:01:35;8.43;;;4.43;;
9364;SDS011;4722;49.340;9.800;2023-04-19T07:04:01;12.10;;;5.88;;
9364;SDS011;4722;49.340;9.800;2023-04-19T07:06:27;13.05;;;4.90;;
9364;SDS011;4722;49.340;9.800;2023-04-19T07:08:53;15.98;;;7.38;;
9364;SDS011;4722;49.340;9.800;2023-04-19T07:11:19;11.60;;;5.57;;
9364;SDS011;4722;49.340;9.800;2023-04-19T07:13:45;14.48;;;6.78;;
9364;SDS011;4722;49.340;9.800;2023-04-19T07:16:11;16.25;;;6.43;;
9364;SDS011;4722;49.340;9.800;2023-04-19T07:18:38;9.70;;;4.78;;
9364;SDS011;4722;49.340;9.800;2023-04-19T07:21:04;13.02;;;5.47;;
9364;SDS011;4722;49.340;9.800;2023-04-19T07:23:30;12.10;;;5.30;;
9364;SDS011;4722;49.340;9.800;2023-04-19T07:25:56;11.00;;;6.97;;
9364;SDS011;4722;49.340;9.800;2023-04-19T07:28:22;16.10;;;6.68;;
9364;SDS011;4722;49.340;9.800;2023-04-19T07:30:48;14.85;;;5.65;;
9364;SDS011;4722;49.340;9.800;2023-04-19T07:33:14;10.40;;;5.07;;
9364;SDS011;4722;49.340;9.800;2023-04-19T07:35:40;13.50;;;5.63;;
9364;SDS011;4722;49.340;9.800;2023-04-19T07:38:06;6.53;;;3.92;;
9364;SDS011;4722;49.340;9.800;2023-04-19T07:40:32;16.38;;;7.25;;
9364;SDS011;4722;49.340;9.800;2023-04-19T07:42:58;14.00;;;5.90;;
9364;SDS011;4722;49.340;9.800;2023-04-19T07:45:24;12.43;;;7.05;;
9364;SDS011;4722;49.340;9.800;2023-04-19T07:47:50;11.93;;;6.13;;
9364;SDS011;4722;49.340;9.800;2023-04-19T07:50:16;13.63;;;6.03;;
9364;SDS011;4722;49.340;9.800;2023-04-19T07:52:42;10.07;;;5.43;;
9364;SDS011;4722;49.340;9.800;2023-04-19T07:55:08;15.52;;;6.90;;
9364;SDS011;4722;49.340;9.800;2023-04-19T07:57:34;11.32;;;5.78;;
9364;SDS011;4722;49.340;9.800;2023-04-19T08:00:00;10.95;;;5.50;;
9364;SDS011;4722;49.340;9.800;2023-04-19T08:02:26;9.98;;;5.22;;
9364;SDS011;4722;49.340;9.800;2023-04-19T08:04:52;12.13;;;6.72;;
9364;SDS011;4722;49.340;9.800;2023-04-19T08:07:18;13.18;;;6.63;;
9364;SDS011;4722;49.340;9.800;2023-04-19T08:09:44;13.18;;;7.40;;
9364;SDS011;4722;49.340;9.800;2023-04-19T08:12:10;11.27;;;5.80;;
9364;SDS011;4722;49.340;9.800;2023-04-19T08:14:36;11.85;;;5.65;;
9364;SDS011;4722;49.340;9.800;2023-04-19T08:17:04;10.70;;;5.63;;
9364;SDS011;4722;49.340;9.800;2023-04-19T08:19:30;8.75;;;4.85;;
9364;SDS011;4722;49.340;9.800;2023-04-19T08:21:56;13.18;;;6.60;;
9364;SDS011;4722;49.340;9.800;2023-04-19T08:24:22;10.63;;;6.22;;
9364;SDS011;4722;49.340;9.800;2023-04-19T08:26:47;14.38;;;6.22;;
9364;SDS011;4722;49.340;9.800;2023-04-19T08:29:20;10.18;;;5.82;;
9364;SDS011;4722;49.340;9.800;2023-04-19T08:31:47;13.95;;;6.65;;
9364;SDS011;4722;49.340;9.800;2023-04-19T08:34:13;12.45;;;6.53;;
9364;SDS011;4722;49.340;9.800;2023-04-19T08:36:38;12.32;;;5.57;;
9364;SDS011;4722;49.340;9.800;2023-04-19T08:39:05;13.07;;;6.32;;
9364;SDS011;4722;49.340;9.800;2023-04-19T08:41:31;13.45;;;7.00;;
9364;SDS011;4722;49.340;9.800;2023-04-19T08:43:57;12.68;;;5.97;;
9364;SDS011;4722;49.340;9.800;2023-04-19T08:46:25;14.55;;;7.20;;
9364;SDS011;4722;49.340;9.800;2023-04-19T08:48:51;13.57;;;6.63;;
9364;SDS011;4722;49.340;9.800;2023-04-19T08:51:17;14.60;;;6.50;;
9364;SDS011;4722;49.340;9.800;2023-04-19T08:53:44;10.60;;;5.70;;
9364;SDS011;4722;49.340;9.800;2023-04-19T08:56:11;16.60;;;7.25;;
9364;SDS011;4722;49.340;9.800;2023-04-19T08:58:37;16.42;;;7.55;;
9364;SDS011;4722;49.340;9.800;2023-04-19T09:01:03;14.73;;;6.43;;
9364;SDS011;4722;49.340;9.800;2023-04-19T09:03:29;13.38;;;6.88;;
9364;SDS011;4722;49.340;9.800;2023-04-19T09:05:56;14.98;;;6.68;;
9364;SDS011;4722;49.340;9.800;2023-04-19T09:08:28;16.33;;;7.03;;
9364;SDS011;4722;49.340;9.800;2023-04-19T09:13:20;12.13;;;6.93;;
9364;SDS011;4722;49.340;9.800;2023-04-19T09:15:47;12.10;;;6.70;;
9364;SDS011;4722;49.340;9.800;2023-04-19T09:18:13;9.38;;;5.55;;
9364;SDS011;4722;49.340;9.800;2023-04-19T09:20:40;9.90;;;5.95;;
9364;SDS011;4722;49.340;9.800;2023-04-19T09:23:08;13.95;;;6.22;;
9364;SDS011;4722;49.340;9.800;2023-04-19T09:25:36;13.48;;;5.70;;
9364;SDS011;4722;49.340;9.800;2023-04-19T09:28:15;15.50;;;6.55;;
9364;SDS011;4722;49.340;9.800;2023-04-19T09:30:41;16.20;;;7.80;;
9364;SDS011;4722;49.340;9.800;2023-04-19T09:33:07;13.18;;;6.18;;
9364;SDS011;4722;49.340;9.800;2023-04-19T09:35:43;10.52;;;5.30;;
9364;SDS011;4722;49.340;9.800;2023-04-19T09:38:12;15.30;;;7.53;;
9364;SDS011;4722;49.340;9.800;2023-04-19T09:40:39;9.43;;;5.57;;
9364;SDS011;4722;49.340;9.800;2023-04-19T09:43:05;15.27;;;6.05;;
9364;SDS011;4722;49.340;9.800;2023-04-19T09:45:41;10.43;;;6.00;;
9364;SDS011;4722;49.340;9.800;2023-04-19T09:48:07;11.30;;;6.60;;
9364;SDS011;4722;49.340;9.800;2023-04-19T09:50:33;10.55;;;4.97;;
9364;SDS011;4722;49.340;9.800;2023-04-19T09:53:00;12.85;;;4.72;;
9364;SDS011;4722;49.340;9.800;2023-04-19T09:55:26;11.38;;;5.28;;
9364;SDS011;4722;49.340;9.800;2023-04-19T09:57:52;9.02;;;5.18;;
9364;SDS011;4722;49.340;9.800;2023-04-19T10:00:18;9.70;;;5.95;;
9364;SDS011;4722;49.340;9.800;2023-04-19T10:02:45;10.38;;;4.38;;
9364;SDS011;4722;49.340;9.800;2023-04-19T10:05:19;8.13;;;4.10;;
9364;SDS011;4722;49.340;9.800;2023-04-19T10:07:49;8.48;;;4.50;;
9364;SDS011;4722;49.340;9.800;2023-04-19T10:10:16;11.93;;;4.55;;
9364;SDS011;4722;49.340;9.800;2023-04-19T10:12:43;9.88;;;4.47;;
9364;SDS011;4722;49.340;9.800;2023-04-19T10:15:12;10.10;;;4.45;;
9364;SDS011;4722;49.340;9.800;2023-04-19T10:17:39;7.30;;;3.72;;
9364;SDS011;4722;49.340;9.800;2023-04-19T10:20:06;13.35;;;5.07;;
9364;SDS011;4722;49.340;9.800;2023-04-19T10:22:34;7.20;;;4.35;;
9364;SDS011;4722;49.340;9.800;2023-04-19T10:25:07;7.53;;;4.30;;
9364;SDS011;4722;49.340;9.800;2023-04-19T10:30:02;6.90;;;3.17;;
9364;SDS011;4722;49.340;9.800;2023-04-19T10:32:40;10.52;;;3.10;;
9364;SDS011;4722;49.340;9.800;2023-04-19T10:35:09;10.63;;;4.20;;
9364;SDS011;4722;49.340;9.800;2023-04-19T10:37:39;11.77;;;2.83;;
9364;SDS011;4722;49.340;9.800;2023-04-19T10:40:06;7.50;;;3.83;;
9364;SDS011;4722;49.340;9.800;2023-04-19T10:45:32;7.15;;;3.90;;
9364;SDS011;4722;49.340;9.800;2023-04-19T10:47:59;7.60;;;3.80;;
9364;SDS011;4722;49.340;9.800;2023-04-19T10:51:12;9.10;;;3.60;;
9364;SDS011;4722;49.340;9.800;2023-04-19T10:56:03;7.40;;;3.47;;
9364;SDS011;4722;49.340;9.800;2023-04-19T10:58:29;7.47;;;4.20;;
9364;SDS011;4722;49.340;9.800;2023-04-19T11:06:16;5.57;;;3.28;;
9364;SDS011;4722;49.340;9.800;2023-04-19T11:08:44;6.20;;;3.40;;
9364;SDS011;4722;49.340;9.800;2023-04-19T11:11:11;9.38;;;3.78;;
9364;SDS011;4722;49.340;9.800;2023-04-19T11:13:40;8.70;;;3.85;;
9364;SDS011;4722;49.340;9.800;2023-04-19T11:16:07;9.90;;;4.45;;
9364;SDS011;4722;49.340;9.800;2023-04-19T11:18:32;16.67;;;6.53;;
9364;SDS011;4722;49.340;9.800;2023-04-19T11:20:58;6.22;;;4.03;;
9364;SDS011;4722;49.340;9.800;2023-04-19T11:23:25;4.97;;;2.72;;
9364;SDS011;4722;49.340;9.800;2023-04-19T11:25:51;8.07;;;3.20;;
9364;SDS011;4722;49.340;9.800;2023-04-19T11:28:17;14.82;;;4.13;;
9364;SDS011;4722;49.340;9.800;2023-04-19T11:30:45;8.40;;;3.72;;
9364;SDS011;4722;49.340;9.800;2023-04-19T11:33:12;8.18;;;3.42;;
9364;SDS011;4722;49.340;9.800;2023-04-19T11:35:37;4.72;;;2.47;;
9364;SDS011;4722;49.340;9.800;2023-04-19T11:38:03;6.05;;;2.80;;
9364;SDS011;4722;49.340;9.800;2023-04-19T11:40:30;7.63;;;3.30;;
9364;SDS011;4722;49.340;9.800;2023-04-19T11:43:00;5.90;;;3.05;;
9364;SDS011;4722;49.340;9.800;2023-04-19T11:45:36;6.15;;;2.83;;
9364;SDS011;4722;49.340;9.800;2023-04-19T11:48:03;4.10;;;2.50;;
9364;SDS011;4722;49.340;9.800;2023-04-19T11:50:39;5.20;;;2.47;;
9364;SDS011;4722;49.340;9.800;2023-04-19T11:55:34;3.58;;;2.17;;
9364;SDS011;4722;49.340;9.800;2023-04-19T11:58:00;4.15;;;2.45;;
9364;SDS011;4722;49.340;9.800;2023-04-19T12:00:27;3.42;;;2.17;;
9364;SDS011;4722;49.340;9.800;2023-04-19T12:02:53;7.00;;;3.10;;
9364;SDS011;4722;49.340;9.800;2023-04-19T12:05:19;3.30;;;2.17;;
9364;SDS011;4722;49.340;9.800;2023-04-19T12:08:01;3.40;;;1.90;;
9364;SDS011;4722;49.340;9.800;2023-04-19T12:10:28;6.33;;;2.63;;
9364;SDS011;4722;49.340;9.800;2023-04-19T12:12:55;5.70;;;2.38;;
9364;SDS011;4722;49.340;9.800;2023-04-19T12:15:20;3.75;;;1.92;;
9364;SDS011;4722;49.340;9.800;2023-04-19T12:18:00;5.15;;;2.45;;
9364;SDS011;4722;49.340;9.800;2023-04-19T12:20:29;3.42;;;1.90;;
9364;SDS011;4722;49.340;9.800;2023-04-19T12:22:59;4.05;;;2.55;;
9364;SDS011;4722;49.340;9.800;2023-04-19T12:25:29;6.85;;;2.72;;
9364;SDS011;4722;49.340;9.800;2023-04-19T12:27:55;3.90;;;2.25;;
9364;SDS011;4722;49.340;9.800;2023-04-19T12:30:22;4.32;;;2.50;;
9364;SDS011;4722;49.340;9.800;2023-04-19T12:32:48;5.40;;;2.15;;
9364;SDS011;4722;49.340;9.800;2023-04-19T12:35:15;6.88;;;2.65;;
9364;SDS011;4722;49.340;9.800;2023-04-19T12:37:41;4.22;;;2.58;;
9364;SDS011;4722;49.340;9.800;2023-04-19T12:40:08;2.72;;;1.60;;
9364;SDS011;4722;49.340;9.800;2023-04-19T12:42:34;5.45;;;2.67;;
9364;SDS011;4722;49.340;9.800;2023-04-19T12:45:00;10.43;;;3.47;;
9364;SDS011;4722;49.340;9.800;2023-04-19T12:47:25;6.47;;;2.53;;
9364;SDS011;4722;49.340;9.800;2023-04-19T12:49:51;7.72;;;3.05;;
9364;SDS011;4722;49.340;9.800;2023-04-19T12:52:19;4.40;;;2.67;;
9364;SDS011;4722;49.340;9.800;2023-04-19T12:54:45;4.85;;;2.20;;
9364;SDS011;4722;49.340;9.800;2023-04-19T12:57:11;5.03;;;2.83;;
9364;SDS011;4722;49.340;9.800;2023-04-19T12:59:37;6.55;;;2.88;;
9364;SDS011;4722;49.340;9.800;2023-04-19T13:02:04;6.78;;;3.00;;
9364;SDS011;4722;49.340;9.800;2023-04-19T13:04:30;3.55;;;1.75;;
9364;SDS011;4722;49.340;9.800;2023-04-19T13:06:56;11.07;;;3.45;;
9364;SDS011;4722;49.340;9.800;2023-04-19T13:09:22;9.15;;;3.15;;
9364;SDS011;4722;49.340;9.800;2023-04-19T13:11:48;7.53;;;3.47;;
9364;SDS011;4722;49.340;9.800;2023-04-19T13:14:13;5.22;;;2.60;;
9364;SDS011;4722;49.340;9.800;2023-04-19T13:16:40;4.60;;;2.35;;
9364;SDS011;4722;49.340;9.800;2023-04-19T13:19:05;7.47;;;2.97;;
9364;SDS011;4722;49.340;9.800;2023-04-19T13:21:31;13.32;;;3.30;;
9364;SDS011;4722;49.340;9.800;2023-04-19T13:23:57;4.60;;;2.25;;
9364;SDS011;4722;49.340;9.800;2023-04-19T13:26:23;9.30;;;2.08;;
9364;SDS011;4722;49.340;9.800;2023-04-19T13:28:49;6.10;;;1.80;;
9364;SDS011;4722;49.340;9.800;2023-04-19T13:31:15;7.30;;;1.90;;
9364;SDS011;4722;49.340;9.800;2023-04-19T13:33:41;4.22;;;1.63;;
9364;SDS011;4722;49.340;9.800;2023-04-19T13:36:07;2.42;;;1.10;;
9364;SDS011;4722;49.340;9.800;2023-04-19T13:38:33;3.78;;;1.60;;
9364;SDS011;4722;49.340;9.800;2023-04-19T13:41:01;1.73;;;0.98;;
9364;SDS011;4722;49.340;9.800;2023-04-19T13:43:27;4.15;;;1.02;;
9364;SDS011;4722;49.340;9.800;2023-04-19T13:45:53;2.53;;;1.25;;
9364;SDS011;4722;49.340;9.800;2023-04-19T13:48:19;1.33;;;0.65;;
9364;SDS011;4722;49.340;9.800;2023-04-19T13:50:45;2.05;;;0.90;;
9364;SDS011;4722;49.340;9.800;2023-04-19T13:53:11;4.05;;;0.80;;
9364;SDS011;4722;49.340;9.800;2023-04-19T13:55:37;1.92;;;0.77;;
9364;SDS011;4722;49.340;9.800;2023-04-19T13:58:03;1.40;;;0.50;;
9364;SDS011;4722;49.340;9.800;2023-04-19T14:00:29;1.30;;;0.82;;
9364;SDS011;4722;49.340;9.800;2023-04-19T14:02:55;3.05;;;0.45;;
9364;SDS011;4722;49.340;9.800;2023-04-19T14:05:21;2.05;;;0.77;;
9364;SDS011;4722;49.340;9.800;2023-04-19T14:07:47;1.55;;;0.65;;
9364;SDS011;4722;49.340;9.800;2023-04-19T14:10:13;2.72;;;1.45;;
9364;SDS011;4722;49.340;9.800;2023-04-19T14:12:39;3.28;;;0.93;;
9364;SDS011;4722;49.340;9.800;2023-04-19T14:15:05;2.70;;;1.00;;
9364;SDS011;4722;49.340;9.800;2023-04-19T14:17:31;3.38;;;0.70;;
9364;SDS011;4722;49.340;9.800;2023-04-19T14:19:59;2.22;;;0.60;;
9364;SDS011;4722;49.340;9.800;2023-04-19T14:22:25;0.88;;;0.50;;
9364;SDS011;4722;49.340;9.800;2023-04-19T14:24:51;1.38;;;0.50;;
9364;SDS011;4722;49.340;9.800;2023-04-19T14:27:17;1.08;;;0.45;;
9364;SDS011;4722;49.340;9.800;2023-04-19T14:29:43;0.93;;;0.40;;
9364;SDS011;4722;49.340;9.800;2023-04-19T14:32:09;5.57;;;0.60;;
9364;SDS011;4722;49.340;9.800;2023-04-19T14:34:35;2.90;;;0.68;;
9364;SDS011;4722;49.340;9.800;2023-04-19T14:37:01;4.45;;;0.60;;
9364;SDS011;4722;49.340;9.800;2023-04-19T14:39:27;1.30;;;0.50;;
9364;SDS011;4722;49.340;9.800;2023-04-19T14:41:53;1.75;;;0.47;;
9364;SDS011;4722;49.340;9.800;2023-04-19T14:44:21;0.40;;;0.20;;
9364;SDS011;4722;49.340;9.800;2023-04-19T14:46:47;1.92;;;0.57;;
9364;SDS011;4722;49.340;9.800;2023-04-19T14:49:13;2.33;;;0.85;;
9364;SDS011;4722;49.340;9.800;2023-04-19T14:51:39;4.55;;;0.50;;
9364;SDS011;4722;49.340;9.800;2023-04-19T14:54:06;2.05;;;0.47;;
9364;SDS011;4722;49.340;9.800;2023-04-19T14:56:32;1.58;;;0.57;;
9364;SDS011;4722;49.340;9.800;2023-04-19T14:58:58;1.50;;;0.40;;
9364;SDS011;4722;49.340;9.800;2023-04-19T15:01:24;1.52;;;0.60;;
9364;SDS011;4722;49.340;9.800;2023-04-19T15:03:50;0.85;;;0.50;;
9364;SDS011;4722;49.340;9.800;2023-04-19T15:06:16;1.27;;;0.75;;
9364;SDS011;4722;49.340;9.800;2023-04-19T15:08:42;0.52;;;0.30;;
9364;SDS011;4722;49.340;9.800;2023-04-19T15:11:08;4.13;;;0.50;;
9364;SDS011;4722;49.340;9.800;2023-04-19T15:13:34;2.65;;;0.82;;
9364;SDS011;4722;49.340;9.800;2023-04-19T15:16:00;1.33;;;0.75;;
9364;SDS011;4722;49.340;9.800;2023-04-19T15:18:27;4.30;;;0.93;;
9364;SDS011;4722;49.340;9.800;2023-04-19T15:20:53;1.65;;;0.70;;
9364;SDS011;4722;49.340;9.800;2023-04-19T15:23:21;2.17;;;0.73;;